PRIVATE WETTERSTATION BILLIGHEIM-ALLFELD                       ZURCK
Wetterdaten: Freitag, 10.11.2017
Datum Zeit Temp. A. Temp. A. min Temp. A. max Feuchte A. Luftdruck Regen Wind Richtung Richtung Sonnenschein ET Solar Taupunkt Windchill Windben Empfang
10.11.2017 00:00 5,5 C 5,5 C 5,5 C 91 % 1024,1 hPa 0,0 l/m 8,0 km/h (2 Bft) W 270 0 min 0,000 mm 0 W/m 4,2 C 4,1 C 20,9 km/h (4 Bft) 100 %
10.11.2017 00:10 5,4 C 5,4 C 5,5 C 91 % 1024,2 hPa 0,0 l/m 8,0 km/h (2 Bft) W 270 0 min 0,000 mm 0 W/m 4,1 C 4,0 C 22,5 km/h (4 Bft) 99 %
10.11.2017 00:20 5,4 C 5,4 C 5,4 C 91 % 1024,3 hPa 0,0 l/m 8,0 km/h (2 Bft) W 270 0 min 0,000 mm 0 W/m 4,1 C 4,0 C 19,3 km/h (3 Bft) 90 %
10.11.2017 00:30 5,4 C 5,4 C 5,4 C 91 % 1024,4 hPa 0,0 l/m 6,4 km/h (2 Bft) W-NW 292 0 min 0,000 mm 0 W/m 4,1 C 5,4 C 19,3 km/h (3 Bft) 100 %
10.11.2017 00:40 5,3 C 5,3 C 5,4 C 91 % 1024,3 hPa 0,0 l/m 6,4 km/h (2 Bft) W 270 0 min 0,000 mm 0 W/m 4,0 C 5,3 C 19,3 km/h (3 Bft) 100 %
10.11.2017 00:50 5,3 C 5,3 C 5,4 C 91 % 1024,3 hPa 0,0 l/m 8,0 km/h (2 Bft) W 270 0 min 0,000 mm 0 W/m 4,0 C 3,9 C 19,3 km/h (3 Bft) 100 %
10.11.2017 01:00 5,3 C 5,3 C 5,3 C 91 % 1024,2 hPa 0,0 l/m 4,8 km/h (1 Bft) W-SW 247 0 min 0,000 mm 0 W/m 4,0 C 5,3 C 11,3 km/h (2 Bft) 100 %
10.11.2017 01:10 5,1 C 5,1 C 5,3 C 91 % 1023,8 hPa 0,0 l/m 6,4 km/h (2 Bft) W-SW 247 0 min 0,000 mm 0 W/m 3,8 C 5,1 C 19,3 km/h (3 Bft) 100 %
10.11.2017 01:20 5,0 C 5,0 C 5,1 C 91 % 1023,8 hPa 0,0 l/m 6,4 km/h (2 Bft) SW 225 0 min 0,000 mm 0 W/m 3,7 C 5,0 C 16,1 km/h (3 Bft) 100 %
10.11.2017 01:30 4,9 C 4,9 C 5,0 C 91 % 1023,7 hPa 0,0 l/m 4,8 km/h (1 Bft) S-SW 202 0 min 0,000 mm 0 W/m 3,6 C 4,9 C 14,5 km/h (3 Bft) 100 %
10.11.2017 01:40 4,8 C 4,8 C 4,9 C 91 % 1023,5 hPa 0,0 l/m 4,8 km/h (1 Bft) S-SW 202 0 min 0,000 mm 0 W/m 3,5 C 4,8 C 9,7 km/h (2 Bft) 100 %
10.11.2017 01:50 4,8 C 4,8 C 4,8 C 91 % 1023,4 hPa 0,0 l/m 4,8 km/h (1 Bft) S 180 0 min 0,000 mm 0 W/m 3,5 C 4,8 C 11,3 km/h (2 Bft) 100 %
10.11.2017 02:00 4,7 C 4,7 C 4,8 C 91 % 1023,3 hPa 0,0 l/m 4,8 km/h (1 Bft) S 180 0 min 0,000 mm 0 W/m 3,4 C 4,7 C 9,7 km/h (2 Bft) 100 %
10.11.2017 02:10 4,7 C 4,7 C 4,7 C 91 % 1023,2 hPa 0,0 l/m 4,8 km/h (1 Bft) S-SW 202 0 min 0,000 mm 0 W/m 3,4 C 4,7 C 12,9 km/h (3 Bft) 100 %
10.11.2017 02:20 4,7 C 4,7 C 4,7 C 91 % 1023,0 hPa 0,0 l/m 6,4 km/h (2 Bft) S 180 0 min 0,000 mm 0 W/m 3,4 C 4,7 C 17,7 km/h (3 Bft) 100 %
10.11.2017 02:30 4,5 C 4,5 C 4,7 C 91 % 1022,7 hPa 0,0 l/m 8,0 km/h (2 Bft) S 180 0 min 0,000 mm 0 W/m 3,2 C 3,1 C 24,1 km/h (4 Bft) 100 %
10.11.2017 02:40 4,4 C 4,4 C 4,5 C 91 % 1022,9 hPa 0,0 l/m 8,0 km/h (2 Bft) S-SW 202 0 min 0,000 mm 0 W/m 3,1 C 3,0 C 19,3 km/h (3 Bft) 100 %
10.11.2017 02:50 4,4 C 4,4 C 4,4 C 91 % 1022,8 hPa 0,0 l/m 8,0 km/h (2 Bft) S-SW 202 0 min 0,000 mm 0 W/m 3,1 C 3,0 C 16,1 km/h (3 Bft) 100 %
10.11.2017 03:00 4,3 C 4,3 C 4,4 C 91 % 1022,8 hPa 0,0 l/m 8,0 km/h (2 Bft) S-SW 202 0 min 0,000 mm 0 W/m 3,0 C 2,9 C 16,1 km/h (3 Bft) 100 %
10.11.2017 03:10 4,3 C 4,3 C 4,3 C 91 % 1023,3 hPa 0,0 l/m 6,4 km/h (2 Bft) SW 225 0 min 0,000 mm 0 W/m 3,0 C 4,3 C 14,5 km/h (3 Bft) 100 %
10.11.2017 03:20 4,3 C 4,3 C 4,3 C 91 % 1023,2 hPa 0,0 l/m 6,4 km/h (2 Bft) S-SW 202 0 min 0,000 mm 0 W/m 3,0 C 4,3 C 14,5 km/h (3 Bft) 100 %
10.11.2017 03:30 4,3 C 4,3 C 4,3 C 91 % 1023,2 hPa 0,0 l/m 6,4 km/h (2 Bft) SW 225 0 min 0,000 mm 0 W/m 3,0 C 4,3 C 14,5 km/h (3 Bft) 100 %
10.11.2017 03:40 4,3 C 4,3 C 4,4 C 91 % 1023,3 hPa 0,0 l/m 6,4 km/h (2 Bft) SW 225 0 min 0,000 mm 0 W/m 3,0 C 4,3 C 16,1 km/h (3 Bft) 100 %
10.11.2017 03:50 4,3 C 4,3 C 4,4 C 91 % 1023,3 hPa 0,0 l/m 9,7 km/h (2 Bft) W 270 0 min 0,000 mm 0 W/m 3,0 C 1,5 C 20,9 km/h (4 Bft) 100 %
10.11.2017 04:00 4,3 C 4,3 C 4,3 C 91 % 1023,2 hPa 0,0 l/m 6,4 km/h (2 Bft) W-SW 247 0 min 0,000 mm 0 W/m 3,0 C 4,3 C 22,5 km/h (4 Bft) 100 %
10.11.2017 04:10 4,2 C 4,2 C 4,3 C 91 % 1022,8 hPa 0,0 l/m 6,4 km/h (2 Bft) W 270 0 min 0,000 mm 0 W/m 2,9 C 4,2 C 19,3 km/h (3 Bft) 100 %
10.11.2017 04:20 4,2 C 4,2 C 4,2 C 91 % 1022,8 hPa 0,0 l/m 8,0 km/h (2 Bft) W-SW 247 0 min 0,000 mm 0 W/m 2,9 C 2,8 C 17,7 km/h (3 Bft) 100 %
10.11.2017 04:30 4,1 C 4,1 C 4,2 C 91 % 1022,6 hPa 0,0 l/m 6,4 km/h (2 Bft) W-SW 247 0 min 0,000 mm 0 W/m 2,8 C 4,1 C 16,1 km/h (3 Bft) 100 %
10.11.2017 04:40 4,1 C 4,1 C 4,1 C 91 % 1022,2 hPa 0,0 l/m 8,0 km/h (2 Bft) SW 225 0 min 0,000 mm 0 W/m 2,8 C 2,7 C 19,3 km/h (3 Bft) 100 %
10.11.2017 04:50 4,0 C 4,0 C 4,1 C 91 % 1022,4 hPa 0,0 l/m 8,0 km/h (2 Bft) SW 225 0 min 0,000 mm 0 W/m 2,7 C 2,6 C 17,7 km/h (3 Bft) 100 %
10.11.2017 05:00 4,0 C 4,0 C 4,1 C 91 % 1022,6 hPa 0,0 l/m 8,0 km/h (2 Bft) SW 225 0 min 0,000 mm 0 W/m 2,7 C 2,6 C 19,3 km/h (3 Bft) 100 %
10.11.2017 05:10 4,0 C 4,0 C 4,0 C 91 % 1022,4 hPa 0,0 l/m 8,0 km/h (2 Bft) SW 225 0 min 0,000 mm 0 W/m 2,7 C 2,6 C 16,1 km/h (3 Bft) 99 %
10.11.2017 05:20 3,9 C 3,9 C 4,0 C 91 % 1022,7 hPa 0,0 l/m 8,0 km/h (2 Bft) W-SW 247 0 min 0,000 mm 0 W/m 2,6 C 2,4 C 24,1 km/h (4 Bft) 100 %
10.11.2017 05:30 3,9 C 3,9 C 4,0 C 91 % 1022,6 hPa 0,0 l/m 6,4 km/h (2 Bft) SW 225 0 min 0,000 mm 0 W/m 2,6 C 3,9 C 16,1 km/h (3 Bft) 100 %
10.11.2017 05:40 3,9 C 3,9 C 3,9 C 91 % 1022,7 hPa 0,0 l/m 4,8 km/h (1 Bft) SW 225 0 min 0,000 mm 0 W/m 2,6 C 3,9 C 11,3 km/h (2 Bft) 100 %
10.11.2017 05:50 3,9 C 3,9 C 3,9 C 91 % 1022,5 hPa 0,0 l/m 4,8 km/h (1 Bft) S-SW 202 0 min 0,000 mm 0 W/m 2,6 C 3,9 C 16,1 km/h (3 Bft) 100 %
10.11.2017 06:00 3,8 C 3,8 C 3,9 C 91 % 1022,0 hPa 0,0 l/m 6,4 km/h (2 Bft) S-SW 202 0 min 0,000 mm 0 W/m 2,5 C 3,8 C 14,5 km/h (3 Bft) 100 %
10.11.2017 06:10 3,7 C 3,7 C 3,8 C 91 % 1021,8 hPa 0,0 l/m 8,0 km/h (2 Bft) S-SW 202 0 min 0,000 mm 0 W/m 2,4 C 2,2 C 16,1 km/h (3 Bft) 99 %
10.11.2017 06:20 3,6 C 3,6 C 3,7 C 91 % 1021,8 hPa 0,0 l/m 6,4 km/h (2 Bft) S-SW 202 0 min 0,000 mm 0 W/m 2,3 C 3,6 C 11,3 km/h (2 Bft) 99 %
10.11.2017 06:30 3,5 C 3,5 C 3,6 C 91 % 1021,7 hPa 0,0 l/m 6,4 km/h (2 Bft) S-SW 202 0 min 0,000 mm 0 W/m 2,2 C 3,5 C 11,3 km/h (2 Bft) 99 %
10.11.2017 06:40 3,4 C 3,4 C 3,5 C 91 % 1021,8 hPa 0,0 l/m 4,8 km/h (1 Bft) S-SW 202 0 min 0,000 mm 0 W/m 2,1 C 3,4 C 12,9 km/h (3 Bft) 99 %
10.11.2017 06:50 3,4 C 3,4 C 3,4 C 91 % 1021,9 hPa 0,0 l/m 4,8 km/h (1 Bft) S-SW 202 0 min 0,000 mm 0 W/m 2,1 C 3,4 C 14,5 km/h (3 Bft) 99 %
10.11.2017 07:00 3,3 C 3,3 C 3,4 C 91 % 1022,0 hPa 0,0 l/m 4,8 km/h (1 Bft) S-SW 202 0 min 0,000 mm 0 W/m 2,0 C 3,3 C 11,3 km/h (2 Bft) 98 %
10.11.2017 07:10 3,3 C 3,3 C 3,3 C 91 % 1021,8 hPa 0,0 l/m 8,0 km/h (2 Bft) S-SW 202 0 min 0,000 mm 0 W/m 2,0 C 1,8 C 17,7 km/h (3 Bft) 97 %
10.11.2017 07:20 3,3 C 3,3 C 3,3 C 91 % 1022,0 hPa 0,0 l/m 6,4 km/h (2 Bft) S-SW 202 0 min 0,000 mm 0 W/m 2,0 C 3,3 C 14,5 km/h (3 Bft) 97 %
10.11.2017 07:30 3,3 C 3,2 C 3,3 C 91 % 1021,9 hPa 0,0 l/m 4,8 km/h (1 Bft) S-SW 202 0 min 0,000 mm 0 W/m 2,0 C 3,3 C 11,3 km/h (2 Bft) 98 %
10.11.2017 07:40 3,4 C 3,3 C 3,4 C 91 % 1021,4 hPa 0,0 l/m 4,8 km/h (1 Bft) S-SW 202 0 min 0,000 mm 0 W/m 2,1 C 3,4 C 9,7 km/h (2 Bft) 98 %
10.11.2017 07:50 3,4 C 3,4 C 3,4 C 91 % 1021,4 hPa 0,0 l/m 6,4 km/h (2 Bft) S-SW 202 0 min 0,000 mm 5 W/m 2,1 C 3,4 C 14,5 km/h (3 Bft) 97 %
10.11.2017 08:00 3,5 C 3,4 C 3,5 C 91 % 1021,3 hPa 0,0 l/m 8,0 km/h (2 Bft) SW 225 0 min 0,000 mm 7 W/m 2,2 C 2,0 C 17,7 km/h (3 Bft) 98 %
10.11.2017 08:10 3,6 C 3,5 C 3,6 C 91 % 1021,3 hPa 0,0 l/m 11,3 km/h (2 Bft) S-SW 202 0 min 0,000 mm 14 W/m 2,3 C -0,4 C 20,9 km/h (4 Bft) 97 %
10.11.2017 08:20 3,6 C 3,5 C 3,6 C 91 % 1021,3 hPa 0,0 l/m 9,7 km/h (2 Bft) SW 225 0 min 0,000 mm 23 W/m 2,3 C 0,8 C 19,3 km/h (3 Bft) 89 %
10.11.2017 08:30 3,7 C 3,6 C 3,7 C 91 % 1021,2 hPa 0,0 l/m 11,3 km/h (2 Bft) SW 225 0 min 0,000 mm 21 W/m 2,4 C -0,3 C 20,9 km/h (4 Bft) 97 %
10.11.2017 08:40 3,8 C 3,7 C 3,8 C 91 % 1021,2 hPa 0,0 l/m 9,7 km/h (2 Bft) SW 225 0 min 0,000 mm 18 W/m 2,5 C 1,0 C 20,9 km/h (4 Bft) 98 %
10.11.2017 08:50 3,8 C 3,8 C 3,8 C 91 % 1021,3 hPa 0,0 l/m 9,7 km/h (2 Bft) SW 225 0 min 0,000 mm 19 W/m 2,5 C 1,0 C 22,5 km/h (4 Bft) 98 %
10.11.2017 09:00 3,8 C 3,8 C 3,8 C 91 % 1021,1 hPa 0,0 l/m 11,3 km/h (2 Bft) SW 225 0 min 0,025 mm 23 W/m 2,5 C -0,2 C 24,1 km/h (4 Bft) 97 %
10.11.2017 09:10 3,8 C 3,8 C 3,8 C 91 % 1021,1 hPa 0,0 l/m 11,3 km/h (2 Bft) S-SW 202 0 min 0,000 mm 23 W/m 2,5 C -0,2 C 20,9 km/h (4 Bft) 97 %
10.11.2017 09:20 3,9 C 3,8 C 3,9 C 91 % 1021,1 hPa 0,0 l/m 11,3 km/h (2 Bft) S-SW 202 0 min 0,000 mm 12 W/m 2,6 C -0,1 C 20,9 km/h (4 Bft) 98 %
10.11.2017 09:30 3,9 C 3,8 C 3,9 C 91 % 1021,1 hPa 0,0 l/m 8,0 km/h (2 Bft) S-SW 202 0 min 0,000 mm 12 W/m 2,6 C 2,4 C 17,7 km/h (3 Bft) 96 %
10.11.2017 09:40 3,9 C 3,9 C 3,9 C 91 % 1020,9 hPa 0,0 l/m 6,4 km/h (2 Bft) S-SW 202 0 min 0,000 mm 18 W/m 2,6 C 3,9 C 16,1 km/h (3 Bft) 97 %
10.11.2017 09:50 4,1 C 3,9 C 4,1 C 91 % 1020,9 hPa 0,0 l/m 6,4 km/h (2 Bft) S-SW 202 0 min 0,000 mm 23 W/m 2,8 C 4,1 C 17,7 km/h (3 Bft) 98 %
10.11.2017 10:00 4,1 C 4,1 C 4,1 C 91 % 1020,7 hPa 0,0 l/m 8,0 km/h (2 Bft) S-SW 202 0 min 0,025 mm 28 W/m 2,8 C 2,7 C 19,3 km/h (3 Bft) 98 %
10.11.2017 10:10 4,2 C 4,1 C 4,2 C 91 % 1020,4 hPa 0,0 l/m 8,0 km/h (2 Bft) S-SW 202 0 min 0,000 mm 28 W/m 2,9 C 2,8 C 16,1 km/h (3 Bft) 97 %
10.11.2017 10:20 4,3 C 4,2 C 4,3 C 91 % 1020,4 hPa 0,0 l/m 6,4 km/h (2 Bft) S-SW 202 0 min 0,000 mm 26 W/m 3,0 C 4,3 C 11,3 km/h (2 Bft) 97 %
10.11.2017 10:40 4,4 C 4,2 C 4,4 C 91 % 1020,4 hPa 0,0 l/m 5,4 km/h (1 Bft) S 190 0 min 0,001 mm 28 W/m 3,1 C 4,4 C 14,5 km/h (3 Bft) 100 %
10.11.2017 10:50 4,5 C 4,4 C 4,5 C 91 % 1020,3 hPa 0,0 l/m 7,3 km/h (2 Bft) S-SW 205 0 min 0,000 mm 26 W/m 3,2 C 3,7 C 16,1 km/h (3 Bft) 100 %
10.11.2017 11:00 4,6 C 4,5 C 4,6 C 91 % 1020,0 hPa 0,0 l/m 9,2 km/h (2 Bft) SW 222 0 min 0,025 mm 44 W/m 3,3 C 2,2 C 17,7 km/h (3 Bft) 100 %
10.11.2017 11:10 4,7 C 4,6 C 4,7 C 91 % 1019,9 hPa 0,0 l/m 9,5 km/h (2 Bft) S-SW 202 0 min 0,000 mm 49 W/m 3,4 C 2,1 C 19,3 km/h (3 Bft) 100 %
10.11.2017 11:20 4,8 C 4,7 C 4,8 C 91 % 1019,5 hPa 0,0 l/m 8,1 km/h (2 Bft) S-SW 213 0 min 0,000 mm 40 W/m 3,5 C 3,3 C 16,1 km/h (3 Bft) 100 %
10.11.2017 11:30 4,8 C 4,7 C 4,8 C 91 % 1019,4 hPa 0,0 l/m 8,6 km/h (2 Bft) S-SW 199 0 min 0,000 mm 42 W/m 3,5 C 2,9 C 16,1 km/h (3 Bft) 100 %
10.11.2017 11:40 4,8 C 4,8 C 4,8 C 91 % 1019,2 hPa 0,2 l/m 9,2 km/h (2 Bft) S-SW 196 0 min 0,000 mm 37 W/m 3,5 C 2,4 C 17,7 km/h (3 Bft) 100 %
10.11.2017 11:50 4,8 C 4,8 C 4,8 C 91 % 1019,1 hPa 0,0 l/m 10,8 km/h (2 Bft) S-SW 213 0 min 0,000 mm 39 W/m 3,5 C 1,3 C 20,9 km/h (4 Bft) 100 %
10.11.2017 12:00 4,8 C 4,8 C 4,8 C 91 % 1018,8 hPa 0,0 l/m 8,5 km/h (2 Bft) S-SW 198 0 min 0,026 mm 39 W/m 3,5 C 3,0 C 17,7 km/h (3 Bft) 100 %
10.11.2017 12:10 4,8 C 4,8 C 4,8 C 91 % 1018,6 hPa 0,2 l/m 7,5 km/h (2 Bft) S-SW 200 0 min 0,000 mm 37 W/m 3,5 C 3,8 C 16,1 km/h (3 Bft) 100 %
10.11.2017 12:20 4,8 C 4,8 C 4,8 C 91 % 1018,5 hPa 0,2 l/m 7,9 km/h (2 Bft) S-SW 207 0 min 0,000 mm 46 W/m 3,5 C 3,5 C 14,5 km/h (3 Bft) 91 %
10.11.2017 12:30 4,8 C 4,8 C 4,9 C 91 % 1018,5 hPa 0,0 l/m 6,5 km/h (2 Bft) S 184 0 min 0,000 mm 42 W/m 3,5 C 4,7 C 16,1 km/h (3 Bft) 100 %
10.11.2017 12:40 4,9 C 4,8 C 4,9 C 90 % 1018,2 hPa 0,0 l/m 6,8 km/h (2 Bft) S 188 0 min 0,000 mm 42 W/m 3,4 C 4,6 C 14,5 km/h (3 Bft) 100 %
10.11.2017 12:50 4,9 C 4,9 C 4,9 C 90 % 1018,1 hPa 0,0 l/m 7,0 km/h (2 Bft) S 182 0 min 0,000 mm 39 W/m 3,4 C 4,4 C 16,1 km/h (3 Bft) 100 %
10.11.2017 13:00 5,0 C 4,9 C 5,0 C 90 % 1017,9 hPa 0,0 l/m 3,1 km/h (1 Bft) S-SW 209 0 min 0,025 mm 30 W/m 3,5 C 5,0 C 11,3 km/h (2 Bft) 100 %
10.11.2017 13:10 5,0 C 5,0 C 5,0 C 90 % 1017,7 hPa 0,2 l/m 5,1 km/h (1 Bft) S 188 0 min 0,000 mm 32 W/m 3,5 C 5,0 C 16,1 km/h (3 Bft) 100 %
10.11.2017 13:20 5,1 C 5,0 C 5,1 C 90 % 1017,6 hPa 0,0 l/m 5,8 km/h (2 Bft) S-SW 196 0 min 0,000 mm 23 W/m 3,6 C 5,1 C 14,5 km/h (3 Bft) 99 %
10.11.2017 13:30 5,1 C 5,1 C 5,1 C 91 % 1017,5 hPa 0,0 l/m 5,5 km/h (1 Bft) SW 229 0 min 0,000 mm 60 W/m 3,8 C 5,1 C 11,3 km/h (2 Bft) 99 %
10.11.2017 13:40 5,1 C 5,1 C 5,2 C 91 % 1017,4 hPa 0,2 l/m 5,4 km/h (1 Bft) SW 215 0 min 0,000 mm 39 W/m 3,8 C 5,1 C 19,3 km/h (3 Bft) 100 %
10.11.2017 13:50 5,1 C 5,1 C 5,2 C 91 % 1017,2 hPa 0,0 l/m 10,4 km/h (2 Bft) SW 230 0 min 0,000 mm 37 W/m 3,8 C 1,9 C 22,5 km/h (4 Bft) 100 %
10.11.2017 14:00 5,1 C 5,1 C 5,1 C 91 % 1017,1 hPa 0,2 l/m 13,6 km/h (3 Bft) S-SW 208 0 min 0,025 mm 33 W/m 3,8 C -0,1 C 27,4 km/h (4 Bft) 100 %
10.11.2017 14:10 5,1 C 5,1 C 5,1 C 91 % 1017,0 hPa 0,0 l/m 10,1 km/h (2 Bft) W-SW 242 0 min 0,000 mm 54 W/m 3,8 C 2,1 C 24,1 km/h (4 Bft) 100 %
10.11.2017 14:20 5,1 C 5,1 C 5,1 C 91 % 1016,8 hPa 0,2 l/m 11,8 km/h (2 Bft) S 188 0 min 0,000 mm 40 W/m 3,8 C 1,0 C 25,7 km/h (4 Bft) 99 %
10.11.2017 14:30 5,1 C 5,1 C 5,1 C 91 % 1016,7 hPa 0,0 l/m 12,8 km/h (3 Bft) S-SW 209 0 min 0,000 mm 37 W/m 3,8 C 0,4 C 27,4 km/h (4 Bft) 90 %
10.11.2017 14:40 5,1 C 5,1 C 5,1 C 91 % 1016,6 hPa 0,0 l/m 10,9 km/h (2 Bft) W 264 0 min 0,000 mm 32 W/m 3,8 C 1,6 C 25,7 km/h (4 Bft) 100 %
10.11.2017 14:50 5,1 C 5,1 C 5,1 C 91 % 1016,6 hPa 0,2 l/m 13,6 km/h (3 Bft) SW 230 0 min 0,000 mm 32 W/m 3,8 C -0,1 C 22,5 km/h (4 Bft) 100 %
10.11.2017 15:00 5,1 C 5,1 C 5,1 C 91 % 1016,6 hPa 0,0 l/m 13,6 km/h (3 Bft) S 189 0 min 0,000 mm 26 W/m 3,8 C -0,1 C 30,6 km/h (5 Bft) 100 %
10.11.2017 15:10 5,1 C 5,1 C 5,1 C 91 % 1016,5 hPa 0,2 l/m 13,5 km/h (3 Bft) SW 224 0 min 0,025 mm 33 W/m 3,8 C -0,0 C 30,6 km/h (5 Bft) 100 %
10.11.2017 15:20 5,1 C 5,1 C 5,1 C 91 % 1016,4 hPa 0,0 l/m 10,4 km/h (2 Bft) SW 217 0 min 0,001 mm 21 W/m 3,8 C 1,9 C 22,5 km/h (4 Bft) 100 %
10.11.2017 15:30 5,1 C 5,1 C 5,1 C 91 % 1016,3 hPa 0,0 l/m 10,4 km/h (2 Bft) W-SW 246 0 min 0,000 mm 14 W/m 3,8 C 1,9 C 25,7 km/h (4 Bft) 91 %
10.11.2017 15:40 5,1 C 5,1 C 5,1 C 91 % 1016,4 hPa 0,0 l/m 12,2 km/h (2 Bft) SW 225 0 min 0,000 mm 14 W/m 3,8 C 0,8 C 30,6 km/h (5 Bft) 100 %
10.11.2017 15:50 5,1 C 5,1 C 5,2 C 91 % 1016,4 hPa 0,2 l/m 8,3 km/h (2 Bft) SW 222 0 min 0,000 mm 9 W/m 3,8 C 3,5 C 24,1 km/h (4 Bft) 100 %
10.11.2017 16:00 5,2 C 5,1 C 5,2 C 91 % 1016,4 hPa 0,0 l/m 7,3 km/h (2 Bft) W-SW 252 0 min 0,025 mm 9 W/m 3,9 C 4,4 C 25,7 km/h (4 Bft) 99 %
10.11.2017 16:10 5,2 C 5,2 C 5,2 C 91 % 1016,3 hPa 0,2 l/m 8,6 km/h (2 Bft) SW 235 0 min 0,000 mm 0 W/m 3,9 C 3,3 C 22,5 km/h (4 Bft) 100 %
10.11.2017 16:20 5,2 C 5,2 C 5,2 C 91 % 1016,2 hPa 0,0 l/m 9,9 km/h (2 Bft) SW 217 0 min 0,000 mm 0 W/m 3,9 C 2,4 C 27,4 km/h (4 Bft) 100 %
10.11.2017 16:30 5,2 C 5,2 C 5,2 C 91 % 1016,1 hPa 0,0 l/m 10,5 km/h (2 Bft) W-SW 256 0 min 0,000 mm 0 W/m 3,9 C 1,9 C 19,3 km/h (3 Bft) 91 %
10.11.2017 16:40 5,2 C 5,2 C 5,2 C 91 % 1016,0 hPa 0,0 l/m 9,5 km/h (2 Bft) SW 225 0 min 0,000 mm 0 W/m 3,9 C 2,7 C 25,7 km/h (4 Bft) 99 %
10.11.2017 16:50 5,2 C 5,2 C 5,2 C 91 % 1016,0 hPa 0,2 l/m 11,0 km/h (2 Bft) W 259 0 min 0,000 mm 0 W/m 3,9 C 1,6 C 25,7 km/h (4 Bft) 98 %
10.11.2017 17:00 5,2 C 5,2 C 5,2 C 91 % 1016,0 hPa 0,0 l/m 10,2 km/h (2 Bft) SW 230 0 min 0,000 mm 0 W/m 3,9 C 2,2 C 24,1 km/h (4 Bft) 97 %
10.11.2017 17:10 5,3 C 5,2 C 5,3 C 91 % 1016,1 hPa 0,2 l/m 12,6 km/h (3 Bft) W 275 0 min 0,000 mm 0 W/m 4,0 C 0,7 C 37,0 km/h (5 Bft) 98 %
10.11.2017 17:20 5,3 C 5,3 C 5,3 C 91 % 1015,9 hPa 0,0 l/m 12,9 km/h (3 Bft) SW 222 0 min 0,000 mm 0 W/m 4,0 C 0,6 C 30,6 km/h (5 Bft) 97 %
10.11.2017 17:30 5,3 C 5,3 C 5,3 C 91 % 1015,9 hPa 0,0 l/m 14,9 km/h (3 Bft) SW 224 0 min 0,000 mm 0 W/m 4,0 C -0,5 C 29,0 km/h (5 Bft) 97 %
10.11.2017 17:40 5,4 C 5,3 C 5,4 C 91 % 1015,9 hPa 0,0 l/m 14,1 km/h (3 Bft) W 259 0 min 0,000 mm 0 W/m 4,1 C 0,0 C 37,0 km/h (5 Bft) 97 %
10.11.2017 17:50 5,4 C 5,4 C 5,4 C 91 % 1016,1 hPa 0,0 l/m 12,4 km/h (3 Bft) W-SW 255 0 min 0,000 mm 0 W/m 4,1 C 1,0 C 30,6 km/h (5 Bft) 98 %
10.11.2017 18:00 5,4 C 5,4 C 5,5 C 91 % 1016,1 hPa 0,0 l/m 12,7 km/h (3 Bft) NW 306 0 min 0,000 mm 0 W/m 4,1 C 0,8 C 32,2 km/h (5 Bft) 97 %
10.11.2017 18:10 5,5 C 5,4 C 5,5 C 91 % 1016,3 hPa 0,0 l/m 13,6 km/h (3 Bft) W-SW 252 0 min 0,025 mm 0 W/m 4,2 C 0,4 C 30,6 km/h (5 Bft) 98 %
10.11.2017 18:20 5,6 C 5,5 C 5,6 C 91 % 1016,2 hPa 0,0 l/m 12,5 km/h (3 Bft) W-SW 247 0 min 0,001 mm 0 W/m 4,2 C 1,2 C 35,4 km/h (5 Bft) 98 %
10.11.2017 18:30 5,6 C 5,5 C 5,6 C 91 % 1016,1 hPa 0,0 l/m 10,3 km/h (2 Bft) S-SW 213 0 min 0,000 mm 0 W/m 4,2 C 2,5 C 29,0 km/h (5 Bft) 90 %
10.11.2017 18:40 5,6 C 5,5 C 5,6 C 91 % 1016,1 hPa 0,0 l/m 10,4 km/h (2 Bft) SW 226 0 min 0,000 mm 0 W/m 4,2 C 2,5 C 30,6 km/h (5 Bft) 98 %
10.11.2017 18:50 5,6 C 5,6 C 5,6 C 91 % 1016,2 hPa 0,0 l/m 12,4 km/h (3 Bft) W 281 0 min 0,000 mm 0 W/m 4,2 C 1,2 C 25,7 km/h (4 Bft) 98 %
10.11.2017 19:00 5,6 C 5,6 C 5,6 C 91 % 1016,1 hPa 0,0 l/m 12,5 km/h (3 Bft) S-SW 210 0 min 0,000 mm 0 W/m 4,2 C 1,2 C 25,7 km/h (4 Bft) 97 %
10.11.2017 19:10 5,7 C 5,6 C 5,7 C 91 % 1016,2 hPa 0,2 l/m 14,1 km/h (3 Bft) W-SW 254 0 min 0,000 mm 0 W/m 4,3 C 0,4 C 35,4 km/h (5 Bft) 97 %
10.11.2017 19:20 5,7 C 5,7 C 5,7 C 91 % 1016,2 hPa 0,2 l/m 12,2 km/h (2 Bft) SW 226 0 min 0,000 mm 0 W/m 4,3 C 1,4 C 30,6 km/h (5 Bft) 98 %
10.11.2017 19:30 5,7 C 5,7 C 5,7 C 91 % 1016,2 hPa 0,0 l/m 9,9 km/h (2 Bft) W-SW 253 0 min 0,000 mm 0 W/m 4,3 C 2,9 C 27,4 km/h (4 Bft) 98 %
10.11.2017 19:40 5,7 C 5,7 C 5,7 C 91 % 1016,2 hPa 0,0 l/m 7,1 km/h (2 Bft) SW 228 0 min 0,000 mm 0 W/m 4,3 C 5,1 C 27,4 km/h (4 Bft) 89 %
10.11.2017 19:50 5,7 C 5,7 C 5,7 C 91 % 1016,2 hPa 0,2 l/m 7,7 km/h (2 Bft) W 265 0 min 0,000 mm 0 W/m 4,3 C 4,6 C 27,4 km/h (4 Bft) 98 %
10.11.2017 20:00 5,7 C 5,7 C 5,7 C 91 % 1016,2 hPa 0,0 l/m 10,0 km/h (2 Bft) W 269 0 min 0,000 mm 0 W/m 4,3 C 2,8 C 29,0 km/h (5 Bft) 98 %
10.11.2017 20:10 5,7 C 5,7 C 5,7 C 91 % 1016,2 hPa 0,4 l/m 10,2 km/h (2 Bft) W 267 0 min 0,000 mm 0 W/m 4,3 C 2,7 C 30,6 km/h (5 Bft) 98 %
10.11.2017 20:20 5,7 C 5,7 C 5,7 C 91 % 1016,2 hPa 0,0 l/m 10,0 km/h (2 Bft) SW 221 0 min 0,000 mm 0 W/m 4,3 C 2,8 C 25,7 km/h (4 Bft) 97 %
10.11.2017 20:30 5,8 C 5,7 C 5,8 C 91 % 1016,1 hPa 0,0 l/m 7,9 km/h (2 Bft) W-SW 258 0 min 0,000 mm 0 W/m 4,4 C 4,5 C 24,1 km/h (4 Bft) 97 %
10.11.2017 20:40 5,8 C 5,7 C 5,8 C 91 % 1016,2 hPa 0,2 l/m 8,9 km/h (2 Bft) W 266 0 min 0,000 mm 0 W/m 4,4 C 3,7 C 24,1 km/h (4 Bft) 98 %
10.11.2017 20:50 5,8 C 5,8 C 5,8 C 91 % 1016,3 hPa 0,2 l/m 6,7 km/h (2 Bft) W-SW 252 0 min 0,000 mm 0 W/m 4,4 C 5,6 C 29,0 km/h (5 Bft) 97 %
10.11.2017 21:00 5,8 C 5,8 C 5,8 C 91 % 1016,3 hPa 0,2 l/m 10,5 km/h (2 Bft) W 269 0 min 0,000 mm 0 W/m 4,4 C 2,6 C 27,4 km/h (4 Bft) 97 %
10.11.2017 21:10 5,8 C 5,8 C 5,8 C 91 % 1016,5 hPa 0,2 l/m 6,4 km/h (2 Bft) W-NW 292 0 min 0,000 mm 0 W/m 4,4 C 5,8 C 19,3 km/h (3 Bft) 100 %
10.11.2017 21:20 5,8 C 5,8 C 5,8 C 91 % 1016,6 hPa 0,2 l/m 4,8 km/h (1 Bft) W-NW 292 0 min 0,000 mm 0 W/m 4,4 C 5,8 C 17,7 km/h (3 Bft) 100 %
10.11.2017 21:30 5,7 C 5,7 C 5,8 C 91 % 1016,4 hPa 0,0 l/m 6,4 km/h (2 Bft) W 270 0 min 0,000 mm 0 W/m 4,3 C 5,7 C 22,5 km/h (4 Bft) 100 %
10.11.2017 21:40 5,4 C 5,4 C 5,7 C 91 % 1016,3 hPa 0,2 l/m 4,8 km/h (1 Bft) W 270 0 min 0,000 mm 0 W/m 4,1 C 5,4 C 16,1 km/h (3 Bft) 100 %
10.11.2017 21:50 5,3 C 5,3 C 5,4 C 91 % 1016,2 hPa 0,0 l/m 4,8 km/h (1 Bft) W-SW 247 0 min 0,000 mm 0 W/m 4,0 C 5,3 C 14,5 km/h (3 Bft) 100 %
10.11.2017 22:00 5,3 C 5,3 C 5,3 C 90 % 1016,3 hPa 0,0 l/m 1,6 km/h (1 Bft) W-SW 247 0 min 0,000 mm 0 W/m 3,8 C 5,3 C 9,7 km/h (2 Bft) 100 %
10.11.2017 22:10 5,3 C 5,3 C 5,4 C 91 % 1016,7 hPa 0,0 l/m 4,8 km/h (1 Bft) W 270 0 min 0,000 mm 0 W/m 4,0 C 5,3 C 14,5 km/h (3 Bft) 100 %
10.11.2017 22:20 5,4 C 5,3 C 5,4 C 91 % 1016,8 hPa 0,0 l/m 4,8 km/h (1 Bft) W 270 0 min 0,000 mm 0 W/m 4,1 C 5,4 C 17,7 km/h (3 Bft) 100 %
10.11.2017 22:30 5,5 C 5,4 C 5,5 C 91 % 1016,8 hPa 0,0 l/m 3,2 km/h (1 Bft) W 270 0 min 0,000 mm 0 W/m 4,2 C 5,5 C 16,1 km/h (3 Bft) 99 %
10.11.2017 22:40 5,6 C 5,5 C 5,6 C 90 % 1016,9 hPa 0,0 l/m 3,2 km/h (1 Bft) W-NW 292 0 min 0,000 mm 0 W/m 4,1 C 5,6 C 9,7 km/h (2 Bft) 100 %
10.11.2017 22:50 5,7 C 5,6 C 5,7 C 90 % 1016,8 hPa 0,0 l/m 1,6 km/h (1 Bft) W 270 0 min 0,000 mm 0 W/m 4,2 C 5,7 C 9,7 km/h (2 Bft) 100 %
10.11.2017 23:00 5,6 C 5,6 C 5,7 C 90 % 1016,8 hPa 0,0 l/m 3,2 km/h (1 Bft) W-NW 292 0 min 0,000 mm 0 W/m 4,1 C 5,6 C 14,5 km/h (3 Bft) 100 %
10.11.2017 23:10 5,6 C 5,6 C 5,6 C 91 % 1016,9 hPa 0,0 l/m 4,8 km/h (1 Bft) W-NW 292 0 min 0,000 mm 0 W/m 4,2 C 5,6 C 14,5 km/h (3 Bft) 100 %
10.11.2017 23:20 5,5 C 5,5 C 5,6 C 91 % 1017,0 hPa 0,0 l/m 1,6 km/h (1 Bft) W-NW 292 0 min 0,000 mm 0 W/m 4,2 C 5,5 C 8,0 km/h (2 Bft) 100 %
10.11.2017 23:30 5,5 C 5,5 C 5,5 C 91 % 1017,0 hPa 0,0 l/m 1,6 km/h (1 Bft) W-NW 292 0 min 0,000 mm 0 W/m 4,2 C 5,5 C 6,4 km/h (2 Bft) 100 %
10.11.2017 23:40 5,6 C 5,5 C 5,6 C 90 % 1017,1 hPa 0,0 l/m 0,0 km/h (0 Bft) W 270 0 min 0,000 mm 0 W/m 4,1 C 5,6 C 6,4 km/h (2 Bft) 99 %
10.11.2017 23:50 5,6 C 5,6 C 5,6 C 90 % 1017,2 hPa 0,0 l/m 1,6 km/h (1 Bft) W-NW 292 0 min 0,000 mm 0 W/m 4,1 C 5,6 C 6,4 km/h (2 Bft) 100 %
_ Min-Zeit 07:30 07:30 07:10 12:40 17:20 - 23:40 - - - - - 07:00 17:30 23:30 08:20
Minimum _ 3,2 C 3,2 C 3,3 C 90 % 1015,9 hPa - 0,0 km/h (0 Bft) - - - - - 2,0 C -0,5 C 6,4 km/h (2 Bft) 89 %
_ Max-Zeit 20:30 20:50 20:30 00:00 00:30 20:10 17:30 - - 00:00 12:00 13:30 20:30 21:10 17:10 00:40
Maximum _ 5,8 C 5,8 C 5,8 C 91 % 1024,4 hPa 0,4 l/m 14,9 km/h
SW (3 Bft)
- - 0 min 0,026 mm 60 W/m 4,4 C 5,8 C 37,0 km/h
W-SW (5 Bft)
100 %
Durchschnitt _ 4,8 C 4,8 C 4,8 C 91 % 1019,4 hPa #4,8 l/m 7,9 km/h (2 Bft) S-SW - #0 min. #0,229 mm 29 W/m 3,4 C 3,2 C 19,7 km/h (3 Bft) 98 %
PRIVATE WETTERSTATION BILLIGHEIM-ALLFELD - www.neckar-odenwald-wetter.de - Holger Sonntag